sensor_id;sensor_type;location;lat;lon;timestamp;temperature;humidity
16347;DHT22;8283;48.504;13.734;2023-02-28T00:02:44;5.30;55.30
16347;DHT22;8283;48.504;13.734;2023-02-28T00:05:29;5.30;55.40
16347;DHT22;8283;48.504;13.734;2023-02-28T00:08:14;5.30;55.40
16347;DHT22;8283;48.504;13.734;2023-02-28T00:11:10;5.30;55.40
16347;DHT22;8283;48.504;13.734;2023-02-28T00:13:55;5.30;55.50
16347;DHT22;8283;48.504;13.734;2023-02-28T00:16:39;5.30;55.40
16347;DHT22;8283;48.504;13.734;2023-02-28T00:19:23;5.30;56.00
16347;DHT22;8283;48.504;13.734;2023-02-28T00:22:07;5.30;55.50
16347;DHT22;8283;48.504;13.734;2023-02-28T00:24:51;5.30;55.50
16347;DHT22;8283;48.504;13.734;2023-02-28T00:27:37;5.30;55.50
16347;DHT22;8283;48.504;13.734;2023-02-28T00:30:23;5.30;55.50
16347;DHT22;8283;48.504;13.734;2023-02-28T00:33:08;5.30;55.40
16347;DHT22;8283;48.504;13.734;2023-02-28T00:36:01;5.30;55.50
16347;DHT22;8283;48.504;13.734;2023-02-28T00:38:47;5.30;55.50
16347;DHT22;8283;48.504;13.734;2023-02-28T00:41:31;5.30;55.40
16347;DHT22;8283;48.504;13.734;2023-02-28T00:44:16;5.30;55.50
16347;DHT22;8283;48.504;13.734;2023-02-28T00:47:00;5.30;55.50
16347;DHT22;8283;48.504;13.734;2023-02-28T00:49:45;5.30;55.50
16347;DHT22;8283;48.504;13.734;2023-02-28T00:52:29;5.30;55.50
16347;DHT22;8283;48.504;13.734;2023-02-28T00:55:14;5.30;55.50
16347;DHT22;8283;48.504;13.734;2023-02-28T00:57:59;5.30;55.50
16347;DHT22;8283;48.504;13.734;2023-02-28T01:00:43;5.30;55.50
16347;DHT22;8283;48.504;13.734;2023-02-28T01:03:32;5.30;55.40
16347;DHT22;8283;48.504;13.734;2023-02-28T01:06:17;5.30;55.40
16347;DHT22;8283;48.504;13.734;2023-02-28T01:09:02;5.30;55.40
16347;DHT22;8283;48.504;13.734;2023-02-28T01:11:47;5.30;55.40
16347;DHT22;8283;48.504;13.734;2023-02-28T01:14:31;5.30;55.40
16347;DHT22;8283;48.504;13.734;2023-02-28T01:17:15;5.30;55.40
16347;DHT22;8283;48.504;13.734;2023-02-28T01:19:59;5.30;55.40
16347;DHT22;8283;48.504;13.734;2023-02-28T01:22:44;5.30;55.40
16347;DHT22;8283;48.504;13.734;2023-02-28T01:25:28;4.40;55.00
16347;DHT22;8283;48.504;13.734;2023-02-28T01:28:13;5.20;55.40
16347;DHT22;8283;48.504;13.734;2023-02-28T01:30:57;5.20;55.40
16347;DHT22;8283;48.504;13.734;2023-02-28T01:33:41;5.20;55.40
16347;DHT22;8283;48.504;13.734;2023-02-28T01:36:26;5.20;55.50
16347;DHT22;8283;48.504;13.734;2023-02-28T01:39:11;5.20;56.00
16347;DHT22;8283;48.504;13.734;2023-02-28T01:41:56;5.20;55.50
16347;DHT22;8283;48.504;13.734;2023-02-28T01:47:45;5.20;55.50
16347;DHT22;8283;48.504;13.734;2023-02-28T01:50:34;5.20;55.40
16347;DHT22;8283;48.504;13.734;2023-02-28T01:53:27;5.20;55.40
16347;DHT22;8283;48.504;13.734;2023-02-28T01:56:18;5.20;55.40
16347;DHT22;8283;48.504;13.734;2023-02-28T01:59:07;5.20;55.40
16347;DHT22;8283;48.504;13.734;2023-02-28T02:01:53;5.20;55.40
16347;DHT22;8283;48.504;13.734;2023-02-28T02:04:41;5.20;55.50
16347;DHT22;8283;48.504;13.734;2023-02-28T02:07:37;5.20;55.50
16347;DHT22;8283;48.504;13.734;2023-02-28T02:10:33;5.10;55.30
16347;DHT22;8283;48.504;13.734;2023-02-28T02:31:36;5.10;55.40
16347;DHT22;8283;48.504;13.734;2023-02-28T02:34:29;5.10;55.50
16347;DHT22;8283;48.504;13.734;2023-02-28T02:40:16;5.00;55.40
16347;DHT22;8283;48.504;13.734;2023-02-28T02:43:06;5.10;55.40
16347;DHT22;8283;48.504;13.734;2023-02-28T02:45:55;5.00;55.40
16347;DHT22;8283;48.504;13.734;2023-02-28T02:48:42;5.00;55.40
16347;DHT22;8283;48.504;13.734;2023-02-28T02:51:30;5.00;55.40
16347;DHT22;8283;48.504;13.734;2023-02-28T02:54:25;5.00;55.40
16347;DHT22;8283;48.504;13.734;2023-02-28T02:57:22;5.00;55.40
16347;DHT22;8283;48.504;13.734;2023-02-28T03:00:09;5.00;55.40
16347;DHT22;8283;48.504;13.734;2023-02-28T03:02:54;5.00;55.40
16347;DHT22;8283;48.504;13.734;2023-02-28T03:08:29;5.00;55.30
16347;DHT22;8283;48.504;13.734;2023-02-28T03:11:17;5.10;55.40
16347;DHT22;8283;48.504;13.734;2023-02-28T03:14:08;5.10;55.40
16347;DHT22;8283;48.504;13.734;2023-02-28T03:23:13;5.80;55.70
16347;DHT22;8283;48.504;13.734;2023-02-28T03:26:07;5.00;55.30
16347;DHT22;8283;48.504;13.734;2023-02-28T03:29:06;5.00;55.40
16347;DHT22;8283;48.504;13.734;2023-02-28T03:31:58;5.00;55.40
16347;DHT22;8283;48.504;13.734;2023-02-28T03:34:59;5.00;55.40
16347;DHT22;8283;48.504;13.734;2023-02-28T03:37:45;5.00;55.40
16347;DHT22;8283;48.504;13.734;2023-02-28T03:40:32;5.00;55.40
16347;DHT22;8283;48.504;13.734;2023-02-28T03:43:25;5.00;55.40
16347;DHT22;8283;48.504;13.734;2023-02-28T03:46:14;5.00;55.40
16347;DHT22;8283;48.504;13.734;2023-02-28T03:49:02;3.70;54.80
16347;DHT22;8283;48.504;13.734;2023-02-28T03:51:48;5.00;55.40
16347;DHT22;8283;48.504;13.734;2023-02-28T03:54:55;4.90;55.40
16347;DHT22;8283;48.504;13.734;2023-02-28T03:57:51;4.90;55.40
16347;DHT22;8283;48.504;13.734;2023-02-28T04:00:46;5.50;55.70
16347;DHT22;8283;48.504;13.734;2023-02-28T04:03:32;4.90;55.40
16347;DHT22;8283;48.504;13.734;2023-02-28T04:06:19;4.90;55.40
16347;DHT22;8283;48.504;13.734;2023-02-28T04:09:05;4.90;55.50
16347;DHT22;8283;48.504;13.734;2023-02-28T04:11:51;4.90;55.40
16347;DHT22;8283;48.504;13.734;2023-02-28T04:14:36;4.90;55.40
16347;DHT22;8283;48.504;13.734;2023-02-28T04:17:20;4.90;55.40
16347;DHT22;8283;48.504;13.734;2023-02-28T04:20:05;4.90;55.40
16347;DHT22;8283;48.504;13.734;2023-02-28T04:22:53;4.90;55.40
16347;DHT22;8283;48.504;13.734;2023-02-28T04:25:38;4.90;55.40
16347;DHT22;8283;48.504;13.734;2023-02-28T04:28:24;4.90;55.40
16347;DHT22;8283;48.504;13.734;2023-02-28T04:31:09;4.90;55.40
16347;DHT22;8283;48.504;13.734;2023-02-28T04:33:53;4.90;55.40
16347;DHT22;8283;48.504;13.734;2023-02-28T04:36:38;4.90;55.40
16347;DHT22;8283;48.504;13.734;2023-02-28T04:39:24;4.90;55.30
16347;DHT22;8283;48.504;13.734;2023-02-28T04:42:09;4.90;55.30
16347;DHT22;8283;48.504;13.734;2023-02-28T04:44:54;4.90;55.30
16347;DHT22;8283;48.504;13.734;2023-02-28T04:47:38;4.90;55.30
16347;DHT22;8283;48.504;13.734;2023-02-28T04:50:22;4.10;54.90
16347;DHT22;8283;48.504;13.734;2023-02-28T04:53:06;4.80;55.00
16347;DHT22;8283;48.504;13.734;2023-02-28T04:55:50;4.80;55.20
16347;DHT22;8283;48.504;13.734;2023-02-28T04:58:35;4.80;55.30
16347;DHT22;8283;48.504;13.734;2023-02-28T05:01:22;4.80;55.30
16347;DHT22;8283;48.504;13.734;2023-02-28T05:04:08;4.80;55.20
16347;DHT22;8283;48.504;13.734;2023-02-28T05:06:53;4.80;55.40
16347;DHT22;8283;48.504;13.734;2023-02-28T05:09:38;4.80;55.40
16347;DHT22;8283;48.504;13.734;2023-02-28T05:12:22;4.80;55.40
16347;DHT22;8283;48.504;13.734;2023-02-28T05:15:07;4.80;55.40
16347;DHT22;8283;48.504;13.734;2023-02-28T05:17:52;4.80;55.40
16347;DHT22;8283;48.504;13.734;2023-02-28T05:20:36;4.80;55.40
16347;DHT22;8283;48.504;13.734;2023-02-28T05:23:22;4.80;55.30
16347;DHT22;8283;48.504;13.734;2023-02-28T05:26:07;4.80;55.30
16347;DHT22;8283;48.504;13.734;2023-02-28T05:28:51;4.80;55.30
16347;DHT22;8283;48.504;13.734;2023-02-28T05:31:36;4.80;55.30
16347;DHT22;8283;48.504;13.734;2023-02-28T05:34:21;4.80;55.30
16347;DHT22;8283;48.504;13.734;2023-02-28T05:37:10;4.70;55.30
16347;DHT22;8283;48.504;13.734;2023-02-28T05:39:55;4.70;55.30
16347;DHT22;8283;48.504;13.734;2023-02-28T05:42:39;4.70;55.30
16347;DHT22;8283;48.504;13.734;2023-02-28T05:45:23;4.70;55.30
16347;DHT22;8283;48.504;13.734;2023-02-28T05:48:08;4.70;55.80
16347;DHT22;8283;48.504;13.734;2023-02-28T05:50:52;4.70;55.30
16347;DHT22;8283;48.504;13.734;2023-02-28T05:53:36;4.70;55.30
16347;DHT22;8283;48.504;13.734;2023-02-28T05:56:20;4.60;55.30
16347;DHT22;8283;48.504;13.734;2023-02-28T05:59:05;4.60;55.30
16347;DHT22;8283;48.504;13.734;2023-02-28T06:01:50;4.60;55.30
16347;DHT22;8283;48.504;13.734;2023-02-28T06:04:34;4.60;55.30
16347;DHT22;8283;48.504;13.734;2023-02-28T06:07:18;4.60;55.40
16347;DHT22;8283;48.504;13.734;2023-02-28T06:10:03;4.60;55.40
16347;DHT22;8283;48.504;13.734;2023-02-28T06:12:47;4.60;55.40
16347;DHT22;8283;48.504;13.734;2023-02-28T06:15:32;4.60;55.40
16347;DHT22;8283;48.504;13.734;2023-02-28T06:18:17;4.60;55.50
16347;DHT22;8283;48.504;13.734;2023-02-28T06:21:01;4.60;55.40
16347;DHT22;8283;48.504;13.734;2023-02-28T06:23:45;4.60;55.40
16347;DHT22;8283;48.504;13.734;2023-02-28T06:26:30;4.60;55.50
16347;DHT22;8283;48.504;13.734;2023-02-28T06:29:14;4.60;55.40
16347;DHT22;8283;48.504;13.734;2023-02-28T06:32:02;4.60;55.40
16347;DHT22;8283;48.504;13.734;2023-02-28T06:34:46;4.60;55.50
16347;DHT22;8283;48.504;13.734;2023-02-28T06:37:32;4.60;55.50
16347;DHT22;8283;48.504;13.734;2023-02-28T06:40:16;4.60;55.50
16347;DHT22;8283;48.504;13.734;2023-02-28T06:43:01;4.70;55.50
16347;DHT22;8283;48.504;13.734;2023-02-28T06:45:45;4.70;55.50
16347;DHT22;8283;48.504;13.734;2023-02-28T06:48:29;4.70;55.50
16347;DHT22;8283;48.504;13.734;2023-02-28T06:51:16;4.70;55.50
16347;DHT22;8283;48.504;13.734;2023-02-28T06:54:01;4.80;55.10
16347;DHT22;8283;48.504;13.734;2023-02-28T06:56:45;4.80;55.60
16347;DHT22;8283;48.504;13.734;2023-02-28T06:59:31;4.80;55.50
16347;DHT22;8283;48.504;13.734;2023-02-28T07:02:16;4.80;55.50
16347;DHT22;8283;48.504;13.734;2023-02-28T07:05:00;4.80;55.60
16347;DHT22;8283;48.504;13.734;2023-02-28T07:07:44;4.80;55.60
16347;DHT22;8283;48.504;13.734;2023-02-28T07:10:31;4.80;55.80
16347;DHT22;8283;48.504;13.734;2023-02-28T07:13:15;4.90;55.80
16347;DHT22;8283;48.504;13.734;2023-02-28T07:16:02;4.90;55.80
16347;DHT22;8283;48.504;13.734;2023-02-28T07:18:47;5.60;56.20
16347;DHT22;8283;48.504;13.734;2023-02-28T07:21:32;5.10;56.00
16347;DHT22;8283;48.504;13.734;2023-02-28T07:24:16;5.40;56.20
16347;DHT22;8283;48.504;13.734;2023-02-28T07:27:02;5.30;56.20
16347;DHT22;8283;48.504;13.734;2023-02-28T07:29:46;5.50;56.90
16347;DHT22;8283;48.504;13.734;2023-02-28T07:32:31;5.60;56.30
16347;DHT22;8283;48.504;13.734;2023-02-28T07:35:15;5.70;56.20
16347;DHT22;8283;48.504;13.734;2023-02-28T07:38:00;5.80;56.10
16347;DHT22;8283;48.504;13.734;2023-02-28T07:40:44;5.90;56.10
16347;DHT22;8283;48.504;13.734;2023-02-28T07:43:30;6.00;56.20
16347;DHT22;8283;48.504;13.734;2023-02-28T07:46:16;6.10;56.20
16347;DHT22;8283;48.504;13.734;2023-02-28T07:49:01;6.20;56.20
16347;DHT22;8283;48.504;13.734;2023-02-28T07:51:46;6.30;55.40
16347;DHT22;8283;48.504;13.734;2023-02-28T07:54:31;6.40;55.80
16347;DHT22;8283;48.504;13.734;2023-02-28T07:57:16;6.50;55.90
16347;DHT22;8283;48.504;13.734;2023-02-28T08:00:03;6.50;56.00
16347;DHT22;8283;48.504;13.734;2023-02-28T08:02:55;7.60;56.50
16347;DHT22;8283;48.504;13.734;2023-02-28T08:05:40;6.70;55.20
16347;DHT22;8283;48.504;13.734;2023-02-28T08:08:24;6.70;55.60
16347;DHT22;8283;48.504;13.734;2023-02-28T08:11:14;6.90;56.00
16347;DHT22;8283;48.504;13.734;2023-02-28T08:13:59;7.00;56.00
16347;DHT22;8283;48.504;13.734;2023-02-28T08:16:43;7.00;56.00
16347;DHT22;8283;48.504;13.734;2023-02-28T08:19:27;7.20;56.10
16347;DHT22;8283;48.504;13.734;2023-02-28T08:22:12;7.20;56.10
16347;DHT22;8283;48.504;13.734;2023-02-28T08:24:56;7.30;56.00
16347;DHT22;8283;48.504;13.734;2023-02-28T08:27:41;7.40;56.10
16347;DHT22;8283;48.504;13.734;2023-02-28T08:30:27;7.50;56.10
16347;DHT22;8283;48.504;13.734;2023-02-28T08:33:11;7.60;56.20
16347;DHT22;8283;48.504;13.734;2023-02-28T08:35:56;7.70;56.30
16347;DHT22;8283;48.504;13.734;2023-02-28T08:38:40;7.90;56.40
16347;DHT22;8283;48.504;13.734;2023-02-28T08:41:24;8.00;56.50
16347;DHT22;8283;48.504;13.734;2023-02-28T08:44:09;8.10;56.50
16347;DHT22;8283;48.504;13.734;2023-02-28T08:46:54;8.30;56.50
16347;DHT22;8283;48.504;13.734;2023-02-28T08:49:38;8.40;56.50
16347;DHT22;8283;48.504;13.734;2023-02-28T08:52:22;8.60;56.30
16347;DHT22;8283;48.504;13.734;2023-02-28T08:55:07;8.60;56.40
16347;DHT22;8283;48.504;13.734;2023-02-28T08:57:52;8.80;56.60
16347;DHT22;8283;48.504;13.734;2023-02-28T09:00:36;8.90;56.90
16347;DHT22;8283;48.504;13.734;2023-02-28T09:03:21;9.10;57.20
16347;DHT22;8283;48.504;13.734;2023-02-28T09:06:07;9.30;56.90
16347;DHT22;8283;48.504;13.734;2023-02-28T09:08:52;9.50;57.00
16347;DHT22;8283;48.504;13.734;2023-02-28T09:11:37;9.70;53.20
16347;DHT22;8283;48.504;13.734;2023-02-28T09:14:22;9.80;52.50
16347;DHT22;8283;48.504;13.734;2023-02-28T09:17:06;9.90;54.70
16347;DHT22;8283;48.504;13.734;2023-02-28T09:19:50;9.90;53.80
16347;DHT22;8283;48.504;13.734;2023-02-28T09:22:34;10.00;55.20
16347;DHT22;8283;48.504;13.734;2023-02-28T09:25:19;10.10;54.00
16347;DHT22;8283;48.504;13.734;2023-02-28T09:28:04;10.10;54.90
16347;DHT22;8283;48.504;13.734;2023-02-28T09:30:53;10.20;55.90
16347;DHT22;8283;48.504;13.734;2023-02-28T09:33:38;10.40;56.00
16347;DHT22;8283;48.504;13.734;2023-02-28T09:36:23;10.60;56.50
16347;DHT22;8283;48.504;13.734;2023-02-28T09:39:08;10.90;56.80
16347;DHT22;8283;48.504;13.734;2023-02-28T09:41:56;11.20;56.90
16347;DHT22;8283;48.504;13.734;2023-02-28T09:44:45;11.50;56.60
16347;DHT22;8283;48.504;13.734;2023-02-28T09:47:36;11.70;56.50
16347;DHT22;8283;48.504;13.734;2023-02-28T09:50:30;12.00;56.40
16347;DHT22;8283;48.504;13.734;2023-02-28T09:53:26;12.30;55.60
16347;DHT22;8283;48.504;13.734;2023-02-28T09:56:18;12.50;55.50
16347;DHT22;8283;48.504;13.734;2023-02-28T10:04:51;12.80;55.10
16347;DHT22;8283;48.504;13.734;2023-02-28T10:08:05;12.90;54.40
16347;DHT22;8283;48.504;13.734;2023-02-28T10:10:55;12.90;53.20
16347;DHT22;8283;48.504;13.734;2023-02-28T10:13:50;13.00;53.50
16347;DHT22;8283;48.504;13.734;2023-02-28T10:16:39;13.00;53.60
16347;DHT22;8283;48.504;13.734;2023-02-28T10:25:26;13.10;52.70
16347;DHT22;8283;48.504;13.734;2023-02-28T10:28:13;13.10;54.00
16347;DHT22;8283;48.504;13.734;2023-02-28T10:30:58;13.20;55.10
16347;DHT22;8283;48.504;13.734;2023-02-28T10:33:43;13.40;54.80
16347;DHT22;8283;48.504;13.734;2023-02-28T10:36:28;13.50;54.00
16347;DHT22;8283;48.504;13.734;2023-02-28T10:42:26;13.70;52.40
16347;DHT22;8283;48.504;13.734;2023-02-28T10:45:16;13.80;53.30
16347;DHT22;8283;48.504;13.734;2023-02-28T10:53:47;14.00;53.70
16347;DHT22;8283;48.504;13.734;2023-02-28T10:56:32;14.20;53.30
16347;DHT22;8283;48.504;13.734;2023-02-28T10:59:29;14.20;48.50
16347;DHT22;8283;48.504;13.734;2023-02-28T11:02:35;14.20;51.00
16347;DHT22;8283;48.504;13.734;2023-02-28T11:05:33;14.20;51.30
16347;DHT22;8283;48.504;13.734;2023-02-28T11:08:18;14.20;51.90
16347;DHT22;8283;48.504;13.734;2023-02-28T11:11:06;14.20;52.40
16347;DHT22;8283;48.504;13.734;2023-02-28T11:13:54;14.10;51.80
16347;DHT22;8283;48.504;13.734;2023-02-28T11:16:39;14.10;51.80
16347;DHT22;8283;48.504;13.734;2023-02-28T11:19:31;14.00;52.30
16347;DHT22;8283;48.504;13.734;2023-02-28T11:22:20;14.10;51.10
16347;DHT22;8283;48.504;13.734;2023-02-28T11:28:43;14.10;51.60
16347;DHT22;8283;48.504;13.734;2023-02-28T11:31:27;14.30;50.70
16347;DHT22;8283;48.504;13.734;2023-02-28T11:34:25;14.50;53.20
16347;DHT22;8283;48.504;13.734;2023-02-28T11:37:18;14.70;51.00
16347;DHT22;8283;48.504;13.734;2023-02-28T11:40:08;14.90;51.80
16347;DHT22;8283;48.504;13.734;2023-02-28T11:43:06;15.00;52.30
16347;DHT22;8283;48.504;13.734;2023-02-28T11:55:22;16.00;52.80
16347;DHT22;8283;48.504;13.734;2023-02-28T11:58:17;16.20;51.40
16347;DHT22;8283;48.504;13.734;2023-02-28T12:10:29;16.40;50.90
16347;DHT22;8283;48.504;13.734;2023-02-28T12:26:12;16.40;50.70
16347;DHT22;8283;48.504;13.734;2023-02-28T12:32:20;16.40;50.60
16347;DHT22;8283;48.504;13.734;2023-02-28T12:38:01;16.40;50.20
16347;DHT22;8283;48.504;13.734;2023-02-28T12:44:02;16.10;49.50
16347;DHT22;8283;48.504;13.734;2023-02-28T12:46:54;16.00;49.20
16347;DHT22;8283;48.504;13.734;2023-02-28T12:49:49;15.80;49.50
16347;DHT22;8283;48.504;13.734;2023-02-28T13:01:42;15.10;49.40
16347;DHT22;8283;48.504;13.734;2023-02-28T13:04:46;15.00;49.50
16347;DHT22;8283;48.504;13.734;2023-02-28T13:10:40;14.80;49.20
16347;DHT22;8283;48.504;13.734;2023-02-28T13:13:28;14.60;48.90
16347;DHT22;8283;48.504;13.734;2023-02-28T13:16:15;14.40;49.30
16347;DHT22;8283;48.504;13.734;2023-02-28T13:19:11;14.20;49.50
16347;DHT22;8283;48.504;13.734;2023-02-28T13:21:58;13.90;48.90
16347;DHT22;8283;48.504;13.734;2023-02-28T13:24:47;13.80;49.40
16347;DHT22;8283;48.504;13.734;2023-02-28T13:27:39;13.60;49.60
16347;DHT22;8283;48.504;13.734;2023-02-28T13:34:05;13.30;49.40
16347;DHT22;8283;48.504;13.734;2023-02-28T13:36:50;13.20;49.60
16347;DHT22;8283;48.504;13.734;2023-02-28T13:39:58;13.00;49.10
16347;DHT22;8283;48.504;13.734;2023-02-28T13:42:50;12.90;49.90
16347;DHT22;8283;48.504;13.734;2023-02-28T13:45:36;12.50;50.10
16347;DHT22;8283;48.504;13.734;2023-02-28T13:48:26;12.80;50.50
16347;DHT22;8283;48.504;13.734;2023-02-28T13:51:43;12.80;50.50
16347;DHT22;8283;48.504;13.734;2023-02-28T13:55:03;12.80;50.10
16347;DHT22;8283;48.504;13.734;2023-02-28T13:58:32;12.90;50.30
16347;DHT22;8283;48.504;13.734;2023-02-28T14:04:46;13.10;50.70
16347;DHT22;8283;48.504;13.734;2023-02-28T14:07:42;13.10;50.00
16347;DHT22;8283;48.504;13.734;2023-02-28T14:10:42;13.10;50.50
16347;DHT22;8283;48.504;13.734;2023-02-28T14:13:44;13.10;50.10
16347;DHT22;8283;48.504;13.734;2023-02-28T14:16:55;13.10;50.20
16347;DHT22;8283;48.504;13.734;2023-02-28T14:19:45;13.10;49.90
16347;DHT22;8283;48.504;13.734;2023-02-28T14:25:43;13.10;49.70
16347;DHT22;8283;48.504;13.734;2023-02-28T14:29:01;13.10;50.10
16347;DHT22;8283;48.504;13.734;2023-02-28T14:38:17;12.90;49.20
16347;DHT22;8283;48.504;13.734;2023-02-28T14:41:06;12.80;49.80
16347;DHT22;8283;48.504;13.734;2023-02-28T14:43:59;12.60;49.60
16347;DHT22;8283;48.504;13.734;2023-02-28T14:46:45;12.40;49.50
16347;DHT22;8283;48.504;13.734;2023-02-28T14:49:42;12.20;50.00
16347;DHT22;8283;48.504;13.734;2023-02-28T14:52:28;12.10;50.10
16347;DHT22;8283;48.504;13.734;2023-02-28T14:55:17;12.00;50.20
16347;DHT22;8283;48.504;13.734;2023-02-28T14:58:05;12.00;50.10
16347;DHT22;8283;48.504;13.734;2023-02-28T15:00:52;11.90;50.10
16347;DHT22;8283;48.504;13.734;2023-02-28T15:03:39;11.80;50.40
16347;DHT22;8283;48.504;13.734;2023-02-28T15:06:23;11.70;50.30
16347;DHT22;8283;48.504;13.734;2023-02-28T15:09:18;11.60;50.10
16347;DHT22;8283;48.504;13.734;2023-02-28T15:12:03;11.60;50.30
16347;DHT22;8283;48.504;13.734;2023-02-28T15:14:48;11.50;50.60
16347;DHT22;8283;48.504;13.734;2023-02-28T15:17:32;11.50;50.60
16347;DHT22;8283;48.504;13.734;2023-02-28T15:20:18;11.50;50.70
16347;DHT22;8283;48.504;13.734;2023-02-28T15:23:03;11.30;50.00
16347;DHT22;8283;48.504;13.734;2023-02-28T15:25:48;11.20;50.40
16347;DHT22;8283;48.504;13.734;2023-02-28T15:28:33;11.10;50.50
16347;DHT22;8283;48.504;13.734;2023-02-28T15:31:22;11.10;50.60
16347;DHT22;8283;48.504;13.734;2023-02-28T15:34:19;11.00;50.50
16347;DHT22;8283;48.504;13.734;2023-02-28T15:43:24;10.70;50.70
16347;DHT22;8283;48.504;13.734;2023-02-28T15:46:11;10.60;50.80
16347;DHT22;8283;48.504;13.734;2023-02-28T15:48:57;10.60;50.90
16347;DHT22;8283;48.504;13.734;2023-02-28T15:51:41;10.50;50.80
16347;DHT22;8283;48.504;13.734;2023-02-28T15:54:33;10.50;50.80
16347;DHT22;8283;48.504;13.734;2023-02-28T15:57:22;10.40;50.90
16347;DHT22;8283;48.504;13.734;2023-02-28T16:00:15;10.40;51.00
16347;DHT22;8283;48.504;13.734;2023-02-28T16:03:00;10.30;51.00
16347;DHT22;8283;48.504;13.734;2023-02-28T16:05:44;10.30;51.00
16347;DHT22;8283;48.504;13.734;2023-02-28T16:08:28;10.30;51.00
16347;DHT22;8283;48.504;13.734;2023-02-28T16:11:13;10.20;51.00
16347;DHT22;8283;48.504;13.734;2023-02-28T16:13:57;10.20;51.00
16347;DHT22;8283;48.504;13.734;2023-02-28T16:16:44;10.20;51.10
16347;DHT22;8283;48.504;13.734;2023-02-28T16:19:28;10.10;51.10
16347;DHT22;8283;48.504;13.734;2023-02-28T16:22:13;10.10;51.20
16347;DHT22;8283;48.504;13.734;2023-02-28T16:24:57;10.00;51.30
16347;DHT22;8283;48.504;13.734;2023-02-28T16:27:42;9.90;51.30
16347;DHT22;8283;48.504;13.734;2023-02-28T16:30:28;9.80;51.50
16347;DHT22;8283;48.504;13.734;2023-02-28T16:33:15;9.80;51.50
16347;DHT22;8283;48.504;13.734;2023-02-28T16:36:00;9.70;51.50
16347;DHT22;8283;48.504;13.734;2023-02-28T16:38:45;9.70;51.60
16347;DHT22;8283;48.504;13.734;2023-02-28T16:41:29;9.60;51.80
16347;DHT22;8283;48.504;13.734;2023-02-28T16:44:32;9.60;51.70
16347;DHT22;8283;48.504;13.734;2023-02-28T16:47:17;9.30;52.00
16347;DHT22;8283;48.504;13.734;2023-02-28T16:50:12;9.40;51.90
16347;DHT22;8283;48.504;13.734;2023-02-28T16:52:56;9.30;52.00
16347;DHT22;8283;48.504;13.734;2023-02-28T16:55:41;9.30;52.10
16347;DHT22;8283;48.504;13.734;2023-02-28T16:58:25;9.20;52.00
16347;DHT22;8283;48.504;13.734;2023-02-28T17:01:11;9.30;52.10
16347;DHT22;8283;48.504;13.734;2023-02-28T17:03:56;9.30;52.10
16347;DHT22;8283;48.504;13.734;2023-02-28T17:06:41;9.20;52.00
16347;DHT22;8283;48.504;13.734;2023-02-28T17:09:25;9.30;52.10
16347;DHT22;8283;48.504;13.734;2023-02-28T17:12:11;9.30;52.10
16347;DHT22;8283;48.504;13.734;2023-02-28T17:14:55;9.20;52.10
16347;DHT22;8283;48.504;13.734;2023-02-28T17:17:40;9.20;52.20
16347;DHT22;8283;48.504;13.734;2023-02-28T17:20:25;9.20;52.20
16347;DHT22;8283;48.504;13.734;2023-02-28T17:23:10;9.20;52.20
16347;DHT22;8283;48.504;13.734;2023-02-28T17:25:55;9.20;52.20
16347;DHT22;8283;48.504;13.734;2023-02-28T17:28:39;9.20;52.20
16347;DHT22;8283;48.504;13.734;2023-02-28T17:31:26;9.20;52.20
16347;DHT22;8283;48.504;13.734;2023-02-28T17:34:10;9.20;52.20
16347;DHT22;8283;48.504;13.734;2023-02-28T17:36:55;9.20;52.20
16347;DHT22;8283;48.504;13.734;2023-02-28T17:39:39;9.20;52.20
16347;DHT22;8283;48.504;13.734;2023-02-28T17:42:23;9.20;52.20
16347;DHT22;8283;48.504;13.734;2023-02-28T17:45:08;9.10;52.40
16347;DHT22;8283;48.504;13.734;2023-02-28T17:47:53;9.10;52.30
16347;DHT22;8283;48.504;13.734;2023-02-28T17:50:37;9.00;52.60
16347;DHT22;8283;48.504;13.734;2023-02-28T17:53:22;9.00;52.50
16347;DHT22;8283;48.504;13.734;2023-02-28T17:56:22;8.90;52.50
16347;DHT22;8283;48.504;13.734;2023-02-28T17:59:09;8.90;52.90
16347;DHT22;8283;48.504;13.734;2023-02-28T18:01:54;8.90;52.60
16347;DHT22;8283;48.504;13.734;2023-02-28T18:04:39;8.90;52.70
16347;DHT22;8283;48.504;13.734;2023-02-28T18:07:24;8.90;52.80
16347;DHT22;8283;48.504;13.734;2023-02-28T18:10:14;8.80;53.00
16347;DHT22;8283;48.504;13.734;2023-02-28T18:12:59;10.00;53.40
16347;DHT22;8283;48.504;13.734;2023-02-28T18:15:44;8.80;53.00
16347;DHT22;8283;48.504;13.734;2023-02-28T18:18:28;8.80;53.10
16347;DHT22;8283;48.504;13.734;2023-02-28T18:21:14;8.80;52.90
16347;DHT22;8283;48.504;13.734;2023-02-28T18:23:58;8.80;53.10
16347;DHT22;8283;48.504;13.734;2023-02-28T18:26:43;8.70;53.00
16347;DHT22;8283;48.504;13.734;2023-02-28T18:29:28;9.20;53.40
16347;DHT22;8283;48.504;13.734;2023-02-28T18:32:13;8.70;53.10
16347;DHT22;8283;48.504;13.734;2023-02-28T18:34:57;8.70;53.10
16347;DHT22;8283;48.504;13.734;2023-02-28T18:37:41;8.70;53.20
16347;DHT22;8283;48.504;13.734;2023-02-28T18:40:25;8.70;53.00
16347;DHT22;8283;48.504;13.734;2023-02-28T18:43:10;8.70;53.00
16347;DHT22;8283;48.504;13.734;2023-02-28T18:45:54;8.70;53.00
16347;DHT22;8283;48.504;13.734;2023-02-28T18:48:39;8.80;52.90
16347;DHT22;8283;48.504;13.734;2023-02-28T18:51:25;8.80;52.80
16347;DHT22;8283;48.504;13.734;2023-02-28T18:54:14;8.80;52.80
16347;DHT22;8283;48.504;13.734;2023-02-28T18:56:59;8.80;52.80
16347;DHT22;8283;48.504;13.734;2023-02-28T18:59:44;8.90;52.80
16347;DHT22;8283;48.504;13.734;2023-02-28T19:02:28;8.90;52.80
16347;DHT22;8283;48.504;13.734;2023-02-28T19:05:12;8.90;52.70
16347;DHT22;8283;48.504;13.734;2023-02-28T19:07:56;8.90;52.80
16347;DHT22;8283;48.504;13.734;2023-02-28T19:10:40;8.90;52.70
16347;DHT22;8283;48.504;13.734;2023-02-28T19:13:24;8.90;52.70
16347;DHT22;8283;48.504;13.734;2023-02-28T19:16:11;8.90;52.70
16347;DHT22;8283;48.504;13.734;2023-02-28T19:18:55;8.90;52.70
16347;DHT22;8283;48.504;13.734;2023-02-28T19:21:40;8.90;52.60
16347;DHT22;8283;48.504;13.734;2023-02-28T19:24:25;8.90;52.70
16347;DHT22;8283;48.504;13.734;2023-02-28T19:27:09;8.90;52.60
16347;DHT22;8283;48.504;13.734;2023-02-28T19:29:53;8.90;52.70
16347;DHT22;8283;48.504;13.734;2023-02-28T19:32:38;8.90;52.70
16347;DHT22;8283;48.504;13.734;2023-02-28T19:35:22;8.90;52.80
16347;DHT22;8283;48.504;13.734;2023-02-28T19:38:07;9.00;52.70
16347;DHT22;8283;48.504;13.734;2023-02-28T19:41:00;9.00;52.80
16347;DHT22;8283;48.504;13.734;2023-02-28T19:43:46;9.00;52.80
16347;DHT22;8283;48.504;13.734;2023-02-28T19:46:30;9.00;52.70
16347;DHT22;8283;48.504;13.734;2023-02-28T19:49:15;8.90;52.70
16347;DHT22;8283;48.504;13.734;2023-02-28T19:52:02;8.90;52.70
16347;DHT22;8283;48.504;13.734;2023-02-28T19:54:47;8.90;52.70
16347;DHT22;8283;48.504;13.734;2023-02-28T19:57:31;8.90;52.70
16347;DHT22;8283;48.504;13.734;2023-02-28T20:00:16;9.10;52.80
16347;DHT22;8283;48.504;13.734;2023-02-28T20:03:02;8.90;52.70
16347;DHT22;8283;48.504;13.734;2023-02-28T20:05:46;8.90;52.80